createdAt,value
2023-04-18T00:01:52.274Z,6.13
2023-04-18T00:05:53.752Z,6.10
2023-04-18T00:09:55.132Z,6.11
2023-04-18T00:13:59.675Z,6.22
2023-04-18T00:18:03.640Z,6.19
2023-04-18T00:22:07.113Z,6.16
2023-04-18T00:26:09.207Z,6.16
2023-04-18T00:30:11.007Z,6.19
2023-04-18T00:34:12.588Z,6.11
2023-04-18T00:38:14.174Z,6.18
2023-04-18T00:42:15.657Z,5.98
2023-04-18T00:46:17.045Z,6.17
2023-04-18T00:50:19.867Z,6.11
2023-04-18T00:54:21.937Z,5.91
2023-04-18T00:58:24.550Z,5.72
2023-04-18T01:02:27.274Z,5.78
2023-04-18T01:06:29.451Z,5.73
2023-04-18T01:10:31.214Z,5.76
2023-04-18T01:14:32.722Z,5.65
2023-04-18T01:18:34.998Z,5.80
2023-04-18T01:22:36.517Z,5.68
2023-04-18T01:26:38.434Z,5.73
2023-04-18T01:30:40.560Z,5.68
2023-04-18T01:34:42.012Z,5.51
2023-04-18T01:38:43.436Z,5.62
2023-04-18T01:42:44.930Z,5.67
2023-04-18T01:46:46.457Z,5.59
2023-04-18T01:50:48.029Z,5.41
2023-04-18T01:54:49.457Z,5.41
2023-04-18T01:58:50.888Z,5.16
2023-04-18T02:02:52.540Z,5.36
2023-04-18T02:06:54.099Z,5.35
2023-04-18T02:10:55.505Z,5.16
2023-04-18T02:14:56.940Z,5.12
2023-04-18T02:18:58.416Z,5.02
2023-04-18T02:23:00.737Z,5.10
2023-04-18T02:27:02.235Z,4.86
2023-04-18T02:31:03.682Z,4.90
2023-04-18T02:35:05.493Z,5.01
2023-04-18T02:39:07.136Z,4.90
2023-04-18T02:43:08.545Z,5.15
2023-04-18T02:47:10.073Z,4.95
2023-04-18T02:51:11.680Z,5.19
2023-04-18T02:55:13.265Z,5.15
2023-04-18T02:59:14.665Z,5.33
2023-04-18T03:03:16.903Z,5.24
2023-04-18T03:07:18.384Z,5.37
2023-04-18T03:11:19.874Z,5.23
2023-04-18T03:15:21.450Z,5.13
2023-04-18T03:19:22.860Z,5.23
2023-04-18T03:23:24.367Z,5.41
2023-04-18T03:27:25.861Z,5.46
2023-04-18T03:31:27.313Z,5.47
2023-04-18T03:35:28.746Z,5.49
2023-04-18T03:39:30.268Z,5.45
2023-04-18T03:43:31.695Z,5.42
2023-04-18T03:47:33.555Z,5.43
2023-04-18T03:51:43.500Z,5.40
2023-04-18T03:55:44.847Z,5.45
2023-04-18T03:59:47.916Z,5.45
2023-04-18T04:03:49.692Z,5.44
2023-04-18T04:07:51.313Z,5.36
2023-04-18T04:11:52.739Z,5.17
2023-04-18T04:15:54.485Z,5.17
2023-04-18T04:19:56.044Z,5.15
2023-04-18T04:23:57.704Z,5.12
2023-04-18T04:28:01.388Z,5.21
2023-04-18T04:32:05.635Z,5.11
2023-04-18T04:36:09.035Z,5.16
2023-04-18T04:40:10.824Z,5.04
2023-04-18T04:44:12.574Z,5.23
2023-04-18T04:48:14.379Z,5.11
2023-04-18T04:52:16.019Z,4.95
2023-04-18T04:56:17.665Z,5.06
2023-04-18T05:00:20.956Z,5.14
2023-04-18T05:04:22.847Z,5.14
2023-04-18T05:08:24.537Z,5.13
2023-04-18T05:12:26.729Z,5.17
2023-04-18T05:16:28.369Z,5.18
2023-04-18T05:20:29.810Z,5.21
2023-04-18T05:24:32.498Z,5.35
2023-04-18T05:28:34.234Z,5.50
2023-04-18T05:32:35.824Z,5.37
2023-04-18T05:36:37.432Z,5.47
2023-04-18T05:40:38.869Z,5.61
2023-04-18T05:44:40.406Z,5.71
2023-04-18T05:48:41.835Z,5.66
2023-04-18T05:52:43.345Z,5.83
2023-04-18T05:56:44.888Z,5.89
2023-04-18T06:00:47.957Z,5.78
2023-04-18T06:04:49.881Z,5.82
2023-04-18T06:08:51.495Z,5.87
2023-04-18T06:12:52.991Z,5.97
2023-04-18T06:16:54.529Z,6.18
2023-04-18T06:20:56.045Z,6.36
2023-04-18T06:24:59.271Z,6.37
2023-04-18T06:29:01.115Z,6.59
2023-04-18T06:33:03.324Z,6.65
2023-04-18T06:37:05.773Z,6.74
2023-04-18T06:41:07.228Z,6.77
2023-04-18T06:45:11.860Z,7.02
2023-04-18T06:49:14.453Z,7.12
2023-04-18T06:53:15.963Z,7.16
2023-04-18T06:57:17.514Z,7.09
2023-04-18T07:01:19.550Z,7.15
2023-04-18T07:05:21.370Z,7.15
2023-04-18T07:09:23.002Z,7.19
2023-04-18T07:13:24.490Z,7.41
2023-04-18T07:17:26.103Z,7.47
2023-04-18T07:21:27.965Z,7.54
2023-04-18T07:25:29.566Z,7.60
2023-04-18T07:29:31.269Z,7.87
2023-04-18T07:33:33.765Z,8.14
2023-04-18T07:37:35.370Z,8.23
2023-04-18T07:41:36.863Z,8.50
2023-04-18T07:45:38.440Z,8.10
2023-04-18T07:49:40.005Z,8.35
2023-04-18T07:53:41.784Z,8.52
2023-04-18T07:57:45.257Z,8.82
2023-04-18T08:01:47.965Z,8.74
2023-04-18T08:05:50.348Z,8.90
2023-04-18T08:09:51.816Z,8.89
2023-04-18T08:13:53.599Z,8.74
2023-04-18T08:17:56.084Z,8.93
2023-04-18T08:22:11.072Z,8.85
2023-04-18T08:26:12.615Z,8.75
2023-04-18T08:30:14.749Z,8.81
2023-04-18T08:34:16.285Z,8.87
2023-04-18T08:38:18.898Z,8.92
2023-04-18T08:42:23.167Z,8.78
2023-04-18T08:46:26.381Z,8.61
2023-04-18T08:50:28.028Z,8.51
2023-04-18T08:54:30.520Z,8.72
2023-04-18T08:58:33.716Z,8.46
2023-04-18T09:02:43.610Z,8.68
2023-04-18T09:06:54.318Z,8.80
2023-04-18T09:10:56.155Z,8.84
2023-04-18T09:15:11.124Z,9.05
2023-04-18T09:19:17.888Z,9.20
2023-04-18T09:23:24.415Z,9.42
2023-04-18T09:27:26.023Z,9.69
2023-04-18T09:31:27.760Z,9.83
2023-04-18T09:35:29.522Z,10.12
2023-04-18T09:39:30.968Z,10.25
2023-04-18T09:43:32.484Z,10.11
2023-04-18T09:47:35.292Z,10.49
2023-04-18T09:51:40.498Z,10.86
2023-04-18T09:55:42.683Z,10.65
2023-04-18T09:59:54.614Z,10.75
2023-04-18T10:03:57.600Z,10.65
2023-04-18T10:07:59.595Z,10.68
2023-04-18T10:12:02.555Z,10.81
2023-04-18T10:16:04.568Z,11.16
2023-04-18T10:20:10.703Z,11.27
2023-04-18T10:24:52.924Z,11.37
2023-04-18T10:28:58.667Z,11.58
2023-04-18T10:33:30.297Z,11.84
2023-04-18T10:37:33.892Z,11.94
2023-04-18T10:41:38.161Z,12.32
2023-04-18T10:45:39.759Z,12.16
2023-04-18T10:49:53.683Z,12.12
2023-04-18T10:53:57.775Z,12.33
2023-04-18T10:57:59.604Z,12.29
2023-04-18T11:02:25.685Z,12.26
2023-04-18T11:06:27.646Z,12.74
2023-04-18T11:10:29.839Z,12.49
2023-04-18T11:14:45.247Z,12.35
2023-04-18T11:18:46.681Z,12.26
2023-04-18T11:22:50.528Z,12.46
2023-04-18T11:26:55.938Z,12.56
2023-04-18T11:31:02.710Z,12.60
2023-04-18T11:35:04.443Z,12.58
2023-04-18T11:39:06.414Z,12.62
2023-04-18T11:43:07.870Z,12.67
2023-04-18T11:47:31.684Z,12.59
2023-04-18T11:51:39.730Z,13.00
2023-04-18T11:55:41.225Z,12.80
2023-04-18T11:59:48.835Z,12.95
2023-04-18T12:04:07.126Z,12.90
2023-04-18T12:08:11.722Z,12.96
2023-04-18T12:12:18.994Z,13.11
2023-04-18T12:16:20.497Z,12.87
2023-04-18T12:20:25.080Z,12.52
2023-04-18T12:24:28.883Z,12.55
2023-04-18T12:28:31.718Z,12.53
2023-04-18T12:32:33.167Z,12.71
2023-04-18T12:36:35.027Z,12.50
2023-04-18T12:40:39.116Z,12.75
2023-04-18T12:44:40.942Z,12.60
2023-04-18T12:48:42.470Z,12.83
2023-04-18T12:52:44.900Z,13.10
2023-04-18T12:56:46.907Z,13.21
2023-04-18T13:00:48.435Z,13.36
2023-04-18T13:04:51.400Z,13.06
2023-04-18T13:08:52.915Z,12.70
2023-04-18T13:12:54.392Z,12.90
2023-04-18T13:16:55.905Z,12.74
2023-04-18T13:20:57.363Z,12.85
2023-04-18T13:24:59.159Z,13.03
2023-04-18T13:29:00.563Z,13.04
2023-04-18T13:33:02.068Z,13.14
2023-04-18T13:37:03.637Z,13.04
2023-04-18T13:41:12.441Z,12.85
2023-04-18T13:45:14.543Z,12.92
2023-04-18T13:49:16.189Z,12.84
2023-04-18T13:53:18.268Z,12.98
2023-04-18T13:57:19.825Z,13.11
2023-04-18T14:01:22.177Z,13.12
2023-04-18T14:05:23.728Z,13.07
2023-04-18T14:09:26.748Z,12.86
2023-04-18T14:13:28.179Z,13.22
2023-04-18T14:17:30.941Z,13.16
2023-04-18T14:21:32.354Z,13.10
2023-04-18T14:25:34.775Z,13.04
2023-04-18T14:29:36.210Z,13.00
2023-04-18T14:33:38.383Z,12.99
2023-04-18T14:37:39.860Z,13.28
2023-04-18T14:41:41.507Z,13.22
2023-04-18T14:45:42.957Z,13.24
2023-04-18T14:49:44.382Z,13.26
2023-04-18T14:53:46.198Z,13.43
2023-04-18T14:57:47.691Z,13.24
2023-04-18T15:01:49.195Z,13.19
2023-04-18T15:05:52.985Z,13.23
2023-04-18T15:09:54.449Z,13.23
2023-04-18T15:13:56.869Z,13.10
2023-04-18T15:17:58.401Z,13.20
2023-04-18T15:21:59.968Z,13.15
2023-04-18T15:26:01.516Z,13.22
2023-04-18T15:30:03.675Z,13.24
2023-04-18T15:34:06.257Z,13.19
2023-04-18T15:38:07.716Z,13.17
2023-04-18T15:42:09.173Z,13.01
2023-04-18T15:46:10.986Z,12.98
2023-04-18T15:50:12.514Z,13.13
2023-04-18T15:54:14.180Z,12.94
2023-04-18T15:58:15.817Z,13.00
2023-04-18T16:02:17.455Z,13.09
2023-04-18T16:06:22.179Z,12.94
2023-04-18T16:10:23.788Z,12.91
2023-04-18T16:14:25.319Z,12.79
2023-04-18T16:18:26.808Z,12.73
2023-04-18T16:22:28.226Z,12.80
2023-04-18T16:26:29.756Z,12.84
2023-04-18T16:30:31.264Z,12.68
2023-04-18T16:34:34.138Z,12.95
2023-04-18T16:38:35.739Z,12.75
2023-04-18T16:42:37.478Z,12.77
2023-04-18T16:46:38.999Z,12.80
2023-04-18T16:50:40.639Z,12.71
2023-04-18T16:54:42.077Z,12.56
2023-04-18T16:58:43.577Z,12.53
2023-04-18T17:02:45.242Z,12.48
2023-04-18T17:06:46.836Z,12.41
2023-04-18T17:10:51.646Z,12.32
2023-04-18T17:14:53.121Z,12.39
2023-04-18T17:18:55.975Z,12.37
2023-04-18T17:22:57.472Z,12.15
2023-04-18T17:27:00.168Z,12.11
2023-04-18T17:31:01.877Z,12.07
2023-04-18T17:35:06.164Z,12.03
2023-04-18T17:39:07.766Z,11.88
2023-04-18T17:43:11.866Z,11.87
2023-04-18T17:47:13.370Z,11.86
2023-04-18T17:51:16.360Z,11.75
2023-04-18T17:55:18.068Z,11.64
2023-04-18T17:59:19.557Z,11.59
2023-04-18T18:03:21.350Z,11.64
2023-04-18T18:07:22.927Z,11.47
2023-04-18T18:11:24.487Z,11.36
2023-04-18T18:15:26.244Z,11.19
2023-04-18T18:19:27.722Z,11.05
2023-04-18T18:23:29.187Z,10.89
2023-04-18T18:27:31.016Z,10.91
2023-04-18T18:31:32.489Z,10.84
2023-04-18T18:35:34.895Z,10.79
2023-04-18T18:39:36.661Z,10.79
2023-04-18T18:43:38.095Z,10.72
2023-04-18T18:47:40.193Z,10.70
2023-04-18T18:51:41.933Z,10.52
2023-04-18T18:55:44.186Z,10.50
2023-04-18T18:59:45.616Z,10.24
2023-04-18T19:03:48.202Z,10.24
2023-04-18T19:07:51.382Z,10.04
2023-04-18T19:11:53.148Z,10.05
2023-04-18T19:15:54.650Z,9.94
2023-04-18T19:19:57.911Z,9.81
2023-04-18T19:23:59.399Z,9.94
2023-04-18T19:28:00.894Z,9.96
2023-04-18T19:32:02.482Z,9.74
2023-04-18T19:36:04.280Z,9.62
2023-04-18T19:40:06.970Z,9.51
2023-04-18T19:44:08.619Z,9.39
2023-04-18T19:48:10.122Z,9.25
2023-04-18T19:52:11.640Z,9.24
2023-04-18T19:56:14.904Z,9.22
2023-04-18T20:00:16.782Z,9.10
2023-04-18T20:04:18.328Z,9.10
2023-04-18T20:08:20.344Z,8.92
2023-04-18T20:12:22.179Z,8.82
2023-04-18T20:16:23.865Z,8.50
2023-04-18T20:20:25.400Z,8.45
2023-04-18T20:24:27.927Z,8.34
2023-04-18T20:28:30.721Z,8.23
2023-04-18T20:32:33.468Z,8.27
2023-04-18T20:36:35.388Z,8.06
2023-04-18T20:40:39.728Z,8.11
2023-04-18T20:44:43.213Z,7.94
2023-04-18T20:48:44.716Z,8.12
2023-04-18T20:52:47.172Z,7.92
2023-04-18T20:56:48.567Z,7.82
2023-04-18T21:00:50.142Z,7.89
2023-04-18T21:04:52.166Z,7.89
2023-04-18T21:08:53.880Z,7.80
2023-04-18T21:12:55.342Z,7.68
2023-04-18T21:16:57.854Z,7.64
2023-04-18T21:20:59.366Z,7.75
2023-04-18T21:25:00.757Z,7.75
2023-04-18T21:29:06.516Z,7.59
2023-04-18T21:33:07.938Z,7.84
2023-04-18T21:37:09.408Z,8.04
2023-04-18T21:41:14.118Z,7.79
2023-04-18T21:45:15.509Z,7.61
2023-04-18T21:49:17.016Z,7.47
2023-04-18T21:53:18.589Z,7.19
2023-04-18T21:57:19.998Z,7.09
2023-04-18T22:01:21.455Z,7.11
2023-04-18T22:05:22.934Z,6.91
2023-04-18T22:09:24.392Z,6.72
2023-04-18T22:13:29.807Z,6.63
2023-04-18T22:17:31.338Z,6.39
2023-04-18T22:21:32.787Z,6.41
2023-04-18T22:25:34.809Z,6.33
2023-04-18T22:29:36.337Z,6.44
2023-04-18T22:33:37.805Z,6.40
2023-04-18T22:37:39.292Z,6.20
2023-04-18T22:41:40.772Z,6.03
2023-04-18T22:45:42.243Z,6.06
2023-04-18T22:49:44.296Z,6.20
2023-04-18T22:53:45.743Z,6.10
2023-04-18T22:57:47.165Z,6.12
2023-04-18T23:01:48.661Z,6.16
2023-04-18T23:05:50.201Z,6.20
2023-04-18T23:09:51.626Z,6.32
2023-04-18T23:13:53.020Z,6.33
2023-04-18T23:17:54.576Z,6.40
2023-04-18T23:21:56.023Z,6.20
2023-04-18T23:25:57.478Z,6.19
2023-04-18T23:29:58.939Z,6.29
2023-04-18T23:34:00.397Z,6.13
2023-04-18T23:38:01.819Z,6.13
2023-04-18T23:42:04.732Z,6.04
2023-04-18T23:46:06.212Z,6.11
2023-04-18T23:50:08.210Z,6.27
2023-04-18T23:54:09.759Z,6.21
2023-04-18T23:58:11.240Z,6.19
